sensor_id;sensor_type;location;lat;lon;timestamp;P1;durP1;ratioP1;P2;durP2;ratioP2
78430;SDS011;67727;50.236;22.452;2023-05-16T00:01:24;9.30;;;6.90;;
78430;SDS011;67727;50.236;22.452;2023-05-16T00:03:52;10.30;;;6.30;;
78430;SDS011;67727;50.236;22.452;2023-05-16T00:06:19;8.80;;;6.50;;
78430;SDS011;67727;50.236;22.452;2023-05-16T00:11:15;11.10;;;6.10;;
78430;SDS011;67727;50.236;22.452;2023-05-16T00:13:42;8.20;;;5.60;;
78430;SDS011;67727;50.236;22.452;2023-05-16T00:16:09;9.70;;;6.70;;
78430;SDS011;67727;50.236;22.452;2023-05-16T00:21:04;9.80;;;7.00;;
78430;SDS011;67727;50.236;22.452;2023-05-16T00:23:31;14.00;;;7.80;;
78430;SDS011;67727;50.236;22.452;2023-05-16T00:28:25;11.90;;;7.30;;
78430;SDS011;67727;50.236;22.452;2023-05-16T00:30:52;13.40;;;7.60;;
78430;SDS011;67727;50.236;22.452;2023-05-16T00:33:18;11.20;;;8.40;;
78430;SDS011;67727;50.236;22.452;2023-05-16T00:35:45;12.70;;;9.00;;
78430;SDS011;67727;50.236;22.452;2023-05-16T00:38:12;10.00;;;7.80;;
78430;SDS011;67727;50.236;22.452;2023-05-16T00:40:39;14.00;;;9.30;;
78430;SDS011;67727;50.236;22.452;2023-05-16T00:43:06;11.60;;;8.10;;
78430;SDS011;67727;50.236;22.452;2023-05-16T00:45:33;9.10;;;7.50;;
78430;SDS011;67727;50.236;22.452;2023-05-16T00:47:59;13.50;;;8.00;;
78430;SDS011;67727;50.236;22.452;2023-05-16T00:50:26;10.90;;;7.70;;
78430;SDS011;67727;50.236;22.452;2023-05-16T00:52:53;12.00;;;8.80;;
78430;SDS011;67727;50.236;22.452;2023-05-16T00:55:20;11.80;;;9.20;;
78430;SDS011;67727;50.236;22.452;2023-05-16T00:57:48;15.10;;;9.60;;
78430;SDS011;67727;50.236;22.452;2023-05-16T01:00:15;11.10;;;8.20;;
78430;SDS011;67727;50.236;22.452;2023-05-16T01:02:45;11.30;;;8.70;;
78430;SDS011;67727;50.236;22.452;2023-05-16T01:05:17;9.80;;;6.90;;
78430;SDS011;67727;50.236;22.452;2023-05-16T01:07:44;11.50;;;7.40;;
78430;SDS011;67727;50.236;22.452;2023-05-16T01:10:11;11.70;;;8.10;;
78430;SDS011;67727;50.236;22.452;2023-05-16T01:15:17;10.10;;;8.30;;
78430;SDS011;67727;50.236;22.452;2023-05-16T01:17:54;9.10;;;7.40;;
78430;SDS011;67727;50.236;22.452;2023-05-16T01:26:10;10.80;;;6.50;;
78430;SDS011;67727;50.236;22.452;2023-05-16T01:28:38;9.10;;;7.30;;
78430;SDS011;67727;50.236;22.452;2023-05-16T01:31:05;11.30;;;7.60;;
78430;SDS011;67727;50.236;22.452;2023-05-16T01:33:32;9.70;;;7.40;;
78430;SDS011;67727;50.236;22.452;2023-05-16T01:39:01;8.50;;;6.70;;
78430;SDS011;67727;50.236;22.452;2023-05-16T01:41:42;8.80;;;6.90;;
78430;SDS011;67727;50.236;22.452;2023-05-16T01:44:35;8.40;;;6.90;;
78430;SDS011;67727;50.236;22.452;2023-05-16T01:47:13;10.30;;;7.50;;
78430;SDS011;67727;50.236;22.452;2023-05-16T01:49:45;11.00;;;7.30;;
78430;SDS011;67727;50.236;22.452;2023-05-16T01:52:25;10.60;;;7.50;;
78430;SDS011;67727;50.236;22.452;2023-05-16T01:54:57;11.30;;;7.70;;
78430;SDS011;67727;50.236;22.452;2023-05-16T01:57:26;8.90;;;7.30;;
78430;SDS011;67727;50.236;22.452;2023-05-16T01:59:54;10.40;;;7.50;;
78430;SDS011;67727;50.236;22.452;2023-05-16T02:02:24;10.30;;;7.90;;
78430;SDS011;67727;50.236;22.452;2023-05-16T02:04:50;10.80;;;8.30;;
78430;SDS011;67727;50.236;22.452;2023-05-16T02:07:17;11.90;;;8.30;;
78430;SDS011;67727;50.236;22.452;2023-05-16T02:09:44;11.40;;;7.90;;
78430;SDS011;67727;50.236;22.452;2023-05-16T02:12:11;9.40;;;6.70;;
78430;SDS011;67727;50.236;22.452;2023-05-16T02:14:38;13.10;;;7.90;;
78430;SDS011;67727;50.236;22.452;2023-05-16T02:17:05;12.50;;;8.50;;
78430;SDS011;67727;50.236;22.452;2023-05-16T02:19:32;10.60;;;8.40;;
78430;SDS011;67727;50.236;22.452;2023-05-16T02:21:59;11.30;;;8.40;;
78430;SDS011;67727;50.236;22.452;2023-05-16T02:24:26;10.10;;;8.00;;
78430;SDS011;67727;50.236;22.452;2023-05-16T02:26:53;14.10;;;7.80;;
78430;SDS011;67727;50.236;22.452;2023-05-16T02:29:19;9.00;;;6.40;;
78430;SDS011;67727;50.236;22.452;2023-05-16T02:31:46;10.10;;;7.90;;
78430;SDS011;67727;50.236;22.452;2023-05-16T02:34:13;10.00;;;8.00;;
78430;SDS011;67727;50.236;22.452;2023-05-16T02:36:43;10.70;;;7.80;;
78430;SDS011;67727;50.236;22.452;2023-05-16T02:39:09;10.60;;;8.30;;
78430;SDS011;67727;50.236;22.452;2023-05-16T02:41:36;10.90;;;8.20;;
78430;SDS011;67727;50.236;22.452;2023-05-16T02:44:03;10.70;;;7.40;;
78430;SDS011;67727;50.236;22.452;2023-05-16T02:46:32;7.90;;;6.90;;
78430;SDS011;67727;50.236;22.452;2023-05-16T02:48:59;13.30;;;7.60;;
78430;SDS011;67727;50.236;22.452;2023-05-16T02:53:54;9.90;;;7.30;;
78430;SDS011;67727;50.236;22.452;2023-05-16T02:56:28;10.80;;;7.80;;
78430;SDS011;67727;50.236;22.452;2023-05-16T02:58:55;11.70;;;7.80;;
78430;SDS011;67727;50.236;22.452;2023-05-16T03:01:22;12.90;;;7.20;;
78430;SDS011;67727;50.236;22.452;2023-05-16T03:03:49;9.60;;;6.40;;
78430;SDS011;67727;50.236;22.452;2023-05-16T03:06:16;10.40;;;7.80;;
78430;SDS011;67727;50.236;22.452;2023-05-16T03:08:43;9.80;;;7.10;;
78430;SDS011;67727;50.236;22.452;2023-05-16T03:11:10;10.20;;;8.10;;
78430;SDS011;67727;50.236;22.452;2023-05-16T03:13:37;9.80;;;7.90;;
78430;SDS011;67727;50.236;22.452;2023-05-16T03:16:04;9.30;;;6.90;;
78430;SDS011;67727;50.236;22.452;2023-05-16T03:18:31;11.20;;;7.70;;
78430;SDS011;67727;50.236;22.452;2023-05-16T03:20:58;8.40;;;6.80;;
78430;SDS011;67727;50.236;22.452;2023-05-16T03:23:25;9.90;;;7.90;;
78430;SDS011;67727;50.236;22.452;2023-05-16T03:25:52;10.80;;;8.00;;
78430;SDS011;67727;50.236;22.452;2023-05-16T03:28:19;10.90;;;8.20;;
78430;SDS011;67727;50.236;22.452;2023-05-16T03:30:46;11.50;;;8.00;;
78430;SDS011;67727;50.236;22.452;2023-05-16T03:33:13;16.20;;;9.00;;
78430;SDS011;67727;50.236;22.452;2023-05-16T03:35:42;12.10;;;8.40;;
78430;SDS011;67727;50.236;22.452;2023-05-16T03:38:10;10.10;;;8.50;;
78430;SDS011;67727;50.236;22.452;2023-05-16T03:40:38;12.20;;;9.50;;
78430;SDS011;67727;50.236;22.452;2023-05-16T03:43:05;14.90;;;9.80;;
78430;SDS011;67727;50.236;22.452;2023-05-16T03:45:32;14.20;;;8.80;;
78430;SDS011;67727;50.236;22.452;2023-05-16T03:47:59;13.00;;;9.70;;
78430;SDS011;67727;50.236;22.452;2023-05-16T03:50:26;14.10;;;9.20;;
78430;SDS011;67727;50.236;22.452;2023-05-16T03:52:53;13.20;;;9.80;;
78430;SDS011;67727;50.236;22.452;2023-05-16T03:55:20;18.00;;;11.70;;
78430;SDS011;67727;50.236;22.452;2023-05-16T03:57:47;17.50;;;12.70;;
78430;SDS011;67727;50.236;22.452;2023-05-16T04:00:15;17.90;;;12.20;;
78430;SDS011;67727;50.236;22.452;2023-05-16T04:02:42;14.20;;;10.60;;
78430;SDS011;67727;50.236;22.452;2023-05-16T04:07:37;16.20;;;11.10;;
78430;SDS011;67727;50.236;22.452;2023-05-16T04:10:04;12.60;;;9.00;;
78430;SDS011;67727;50.236;22.452;2023-05-16T04:12:32;14.40;;;10.10;;
78430;SDS011;67727;50.236;22.452;2023-05-16T04:14:58;13.20;;;9.10;;
78430;SDS011;67727;50.236;22.452;2023-05-16T04:17:25;13.60;;;8.60;;
78430;SDS011;67727;50.236;22.452;2023-05-16T04:19:52;14.00;;;8.20;;
78430;SDS011;67727;50.236;22.452;2023-05-16T04:22:22;11.80;;;8.50;;
78430;SDS011;67727;50.236;22.452;2023-05-16T04:24:49;12.30;;;8.50;;
78430;SDS011;67727;50.236;22.452;2023-05-16T04:27:16;16.10;;;8.40;;
78430;SDS011;67727;50.236;22.452;2023-05-16T04:29:45;11.70;;;8.30;;
78430;SDS011;67727;50.236;22.452;2023-05-16T04:32:12;10.60;;;7.30;;
78430;SDS011;67727;50.236;22.452;2023-05-16T04:34:39;9.30;;;7.20;;
78430;SDS011;67727;50.236;22.452;2023-05-16T04:37:06;10.00;;;7.70;;
78430;SDS011;67727;50.236;22.452;2023-05-16T04:39:33;10.20;;;7.20;;
78430;SDS011;67727;50.236;22.452;2023-05-16T04:42:01;8.80;;;6.50;;
78430;SDS011;67727;50.236;22.452;2023-05-16T04:44:29;8.90;;;6.80;;
78430;SDS011;67727;50.236;22.452;2023-05-16T04:46:56;9.00;;;6.60;;
78430;SDS011;67727;50.236;22.452;2023-05-16T04:49:23;6.50;;;5.50;;
78430;SDS011;67727;50.236;22.452;2023-05-16T04:51:50;7.70;;;6.00;;
78430;SDS011;67727;50.236;22.452;2023-05-16T04:54:17;8.70;;;5.90;;
78430;SDS011;67727;50.236;22.452;2023-05-16T04:56:44;8.70;;;5.50;;
78430;SDS011;67727;50.236;22.452;2023-05-16T04:59:11;7.70;;;5.80;;
78430;SDS011;67727;50.236;22.452;2023-05-16T05:01:38;7.40;;;5.50;;
78430;SDS011;67727;50.236;22.452;2023-05-16T05:04:05;7.40;;;5.50;;
78430;SDS011;67727;50.236;22.452;2023-05-16T05:06:31;7.50;;;5.80;;
78430;SDS011;67727;50.236;22.452;2023-05-16T05:09:01;6.60;;;5.30;;
78430;SDS011;67727;50.236;22.452;2023-05-16T05:11:27;7.40;;;6.00;;
78430;SDS011;67727;50.236;22.452;2023-05-16T05:13:54;8.40;;;6.20;;
78430;SDS011;67727;50.236;22.452;2023-05-16T05:16:22;7.50;;;5.90;;
78430;SDS011;67727;50.236;22.452;2023-05-16T05:18:48;8.00;;;5.40;;
78430;SDS011;67727;50.236;22.452;2023-05-16T05:21:15;5.80;;;4.70;;
78430;SDS011;67727;50.236;22.452;2023-05-16T05:23:43;5.20;;;4.20;;
78430;SDS011;67727;50.236;22.452;2023-05-16T05:26:11;5.70;;;4.40;;
78430;SDS011;67727;50.236;22.452;2023-05-16T05:28:38;6.90;;;4.10;;
78430;SDS011;67727;50.236;22.452;2023-05-16T05:31:04;7.90;;;4.70;;
78430;SDS011;67727;50.236;22.452;2023-05-16T05:33:31;5.40;;;4.30;;
78430;SDS011;67727;50.236;22.452;2023-05-16T05:35:58;6.10;;;4.30;;
78430;SDS011;67727;50.236;22.452;2023-05-16T05:38:25;4.80;;;3.80;;
78430;SDS011;67727;50.236;22.452;2023-05-16T05:40:52;6.70;;;4.50;;
78430;SDS011;67727;50.236;22.452;2023-05-16T05:43:19;5.40;;;4.20;;
78430;SDS011;67727;50.236;22.452;2023-05-16T05:45:46;5.50;;;4.40;;
78430;SDS011;67727;50.236;22.452;2023-05-16T05:48:12;6.60;;;4.10;;
78430;SDS011;67727;50.236;22.452;2023-05-16T05:50:39;5.10;;;4.00;;
78430;SDS011;67727;50.236;22.452;2023-05-16T05:53:06;4.30;;;3.90;;
78430;SDS011;67727;50.236;22.452;2023-05-16T05:55:33;5.20;;;3.90;;
78430;SDS011;67727;50.236;22.452;2023-05-16T05:58:00;4.90;;;4.30;;
78430;SDS011;67727;50.236;22.452;2023-05-16T06:00:27;6.80;;;4.20;;
78430;SDS011;67727;50.236;22.452;2023-05-16T06:05:21;6.20;;;3.80;;
78430;SDS011;67727;50.236;22.452;2023-05-16T06:07:49;5.60;;;3.60;;
78430;SDS011;67727;50.236;22.452;2023-05-16T06:10:16;5.00;;;3.80;;
78430;SDS011;67727;50.236;22.452;2023-05-16T06:12:43;4.00;;;3.20;;
78430;SDS011;67727;50.236;22.452;2023-05-16T06:15:09;5.30;;;4.10;;
78430;SDS011;67727;50.236;22.452;2023-05-16T06:20:04;4.20;;;3.40;;
78430;SDS011;67727;50.236;22.452;2023-05-16T06:22:31;4.50;;;3.70;;
78430;SDS011;67727;50.236;22.452;2023-05-16T06:24:58;6.40;;;3.50;;
78430;SDS011;67727;50.236;22.452;2023-05-16T06:27:24;4.60;;;4.10;;
78430;SDS011;67727;50.236;22.452;2023-05-16T06:29:51;5.60;;;3.80;;
78430;SDS011;67727;50.236;22.452;2023-05-16T06:32:18;4.90;;;3.50;;
78430;SDS011;67727;50.236;22.452;2023-05-16T06:34:45;6.80;;;3.90;;
78430;SDS011;67727;50.236;22.452;2023-05-16T06:37:12;4.40;;;3.70;;
78430;SDS011;67727;50.236;22.452;2023-05-16T06:39:41;4.10;;;3.60;;
78430;SDS011;67727;50.236;22.452;2023-05-16T06:42:08;6.50;;;3.90;;
78430;SDS011;67727;50.236;22.452;2023-05-16T06:44:36;5.00;;;4.10;;
78430;SDS011;67727;50.236;22.452;2023-05-16T06:47:05;4.50;;;3.70;;
78430;SDS011;67727;50.236;22.452;2023-05-16T06:49:32;4.50;;;3.80;;
78430;SDS011;67727;50.236;22.452;2023-05-16T06:54:29;4.40;;;3.50;;
78430;SDS011;67727;50.236;22.452;2023-05-16T06:56:56;6.50;;;4.40;;
78430;SDS011;67727;50.236;22.452;2023-05-16T06:59:23;6.20;;;3.50;;
78430;SDS011;67727;50.236;22.452;2023-05-16T07:01:50;5.50;;;3.60;;
78430;SDS011;67727;50.236;22.452;2023-05-16T07:04:17;4.60;;;3.40;;
78430;SDS011;67727;50.236;22.452;2023-05-16T07:06:44;4.60;;;3.50;;
78430;SDS011;67727;50.236;22.452;2023-05-16T07:11:38;4.70;;;3.80;;
78430;SDS011;67727;50.236;22.452;2023-05-16T07:14:05;4.00;;;3.60;;
78430;SDS011;67727;50.236;22.452;2023-05-16T07:16:32;8.80;;;4.10;;
78430;SDS011;67727;50.236;22.452;2023-05-16T07:18:58;4.50;;;3.50;;
78430;SDS011;67727;50.236;22.452;2023-05-16T07:21:25;4.70;;;3.90;;
78430;SDS011;67727;50.236;22.452;2023-05-16T07:23:52;6.30;;;4.00;;
78430;SDS011;67727;50.236;22.452;2023-05-16T07:26:21;7.50;;;4.00;;
78430;SDS011;67727;50.236;22.452;2023-05-16T07:28:49;4.80;;;3.40;;
78430;SDS011;67727;50.236;22.452;2023-05-16T07:31:16;5.70;;;4.10;;
78430;SDS011;67727;50.236;22.452;2023-05-16T07:33:46;5.10;;;4.20;;
78430;SDS011;67727;50.236;22.452;2023-05-16T07:36:15;4.90;;;3.80;;
78430;SDS011;67727;50.236;22.452;2023-05-16T07:38:42;4.90;;;3.80;;
78430;SDS011;67727;50.236;22.452;2023-05-16T07:41:09;4.70;;;3.90;;
78430;SDS011;67727;50.236;22.452;2023-05-16T07:43:36;4.80;;;3.80;;
78430;SDS011;67727;50.236;22.452;2023-05-16T07:46:02;4.70;;;4.20;;
78430;SDS011;67727;50.236;22.452;2023-05-16T07:48:31;6.10;;;4.10;;
78430;SDS011;67727;50.236;22.452;2023-05-16T07:50:57;4.40;;;3.90;;
78430;SDS011;67727;50.236;22.452;2023-05-16T07:53:24;6.30;;;4.00;;
78430;SDS011;67727;50.236;22.452;2023-05-16T07:55:51;5.30;;;3.90;;
78430;SDS011;67727;50.236;22.452;2023-05-16T08:00:45;5.20;;;4.20;;
78430;SDS011;67727;50.236;22.452;2023-05-16T08:03:12;4.40;;;3.90;;
78430;SDS011;67727;50.236;22.452;2023-05-16T08:05:39;4.60;;;4.00;;
78430;SDS011;67727;50.236;22.452;2023-05-16T08:08:09;9.70;;;3.90;;
78430;SDS011;67727;50.236;22.452;2023-05-16T08:10:36;7.30;;;3.90;;
78430;SDS011;67727;50.236;22.452;2023-05-16T08:13:02;7.00;;;3.70;;
78430;SDS011;67727;50.236;22.452;2023-05-16T08:15:29;4.50;;;4.00;;
78430;SDS011;67727;50.236;22.452;2023-05-16T08:17:56;5.70;;;4.00;;
78430;SDS011;67727;50.236;22.452;2023-05-16T08:20:24;5.30;;;3.90;;
78430;SDS011;67727;50.236;22.452;2023-05-16T08:22:51;6.50;;;4.10;;
78430;SDS011;67727;50.236;22.452;2023-05-16T08:25:19;5.30;;;4.00;;
78430;SDS011;67727;50.236;22.452;2023-05-16T08:27:48;4.90;;;4.40;;
78430;SDS011;67727;50.236;22.452;2023-05-16T08:30:15;4.60;;;3.60;;
78430;SDS011;67727;50.236;22.452;2023-05-16T08:32:42;5.50;;;4.30;;
78430;SDS011;67727;50.236;22.452;2023-05-16T08:35:09;4.00;;;3.60;;
78430;SDS011;67727;50.236;22.452;2023-05-16T08:37:36;6.10;;;4.00;;
78430;SDS011;67727;50.236;22.452;2023-05-16T08:40:04;8.20;;;4.40;;
78430;SDS011;67727;50.236;22.452;2023-05-16T08:42:33;5.20;;;4.10;;
78430;SDS011;67727;50.236;22.452;2023-05-16T08:45:01;5.60;;;4.00;;
78430;SDS011;67727;50.236;22.452;2023-05-16T08:47:29;7.20;;;4.40;;
78430;SDS011;67727;50.236;22.452;2023-05-16T08:49:57;5.30;;;4.00;;
78430;SDS011;67727;50.236;22.452;2023-05-16T08:52:27;5.90;;;4.30;;
78430;SDS011;67727;50.236;22.452;2023-05-16T08:54:56;4.30;;;3.50;;
78430;SDS011;67727;50.236;22.452;2023-05-16T08:57:26;5.90;;;4.40;;
78430;SDS011;67727;50.236;22.452;2023-05-16T08:59:54;6.30;;;4.00;;
78430;SDS011;67727;50.236;22.452;2023-05-16T09:02:22;4.50;;;3.60;;
78430;SDS011;67727;50.236;22.452;2023-05-16T09:04:49;6.40;;;3.80;;
78430;SDS011;67727;50.236;22.452;2023-05-16T09:07:17;4.40;;;3.70;;
78430;SDS011;67727;50.236;22.452;2023-05-16T09:09:44;5.40;;;3.90;;
78430;SDS011;67727;50.236;22.452;2023-05-16T09:12:11;4.70;;;3.60;;
78430;SDS011;67727;50.236;22.452;2023-05-16T09:14:38;5.00;;;4.00;;
78430;SDS011;67727;50.236;22.452;2023-05-16T09:17:08;5.50;;;3.70;;
78430;SDS011;67727;50.236;22.452;2023-05-16T09:19:36;7.30;;;3.80;;
78430;SDS011;67727;50.236;22.452;2023-05-16T09:22:13;6.10;;;4.00;;
78430;SDS011;67727;50.236;22.452;2023-05-16T09:24:44;4.20;;;3.60;;
78430;SDS011;67727;50.236;22.452;2023-05-16T09:27:14;5.90;;;4.40;;
78430;SDS011;67727;50.236;22.452;2023-05-16T09:29:41;5.10;;;3.80;;
78430;SDS011;67727;50.236;22.452;2023-05-16T09:34:44;5.50;;;4.10;;
78430;SDS011;67727;50.236;22.452;2023-05-16T09:37:14;4.40;;;3.40;;
78430;SDS011;67727;50.236;22.452;2023-05-16T09:39:45;4.90;;;3.60;;
78430;SDS011;67727;50.236;22.452;2023-05-16T09:42:16;3.90;;;3.20;;
78430;SDS011;67727;50.236;22.452;2023-05-16T09:44:53;4.40;;;3.50;;
78430;SDS011;67727;50.236;22.452;2023-05-16T09:47:21;4.30;;;3.40;;
78430;SDS011;67727;50.236;22.452;2023-05-16T09:52:19;5.30;;;3.10;;
78430;SDS011;67727;50.236;22.452;2023-05-16T09:54:46;3.70;;;3.20;;
78430;SDS011;67727;50.236;22.452;2023-05-16T09:57:19;3.70;;;3.20;;
78430;SDS011;67727;50.236;22.452;2023-05-16T09:59:47;6.60;;;3.10;;
78430;SDS011;67727;50.236;22.452;2023-05-16T10:02:13;3.80;;;3.10;;
78430;SDS011;67727;50.236;22.452;2023-05-16T10:04:41;3.90;;;3.10;;
78430;SDS011;67727;50.236;22.452;2023-05-16T10:07:08;4.10;;;3.00;;
78430;SDS011;67727;50.236;22.452;2023-05-16T10:09:36;4.00;;;3.60;;
78430;SDS011;67727;50.236;22.452;2023-05-16T10:12:06;5.20;;;3.30;;
78430;SDS011;67727;50.236;22.452;2023-05-16T10:14:39;4.70;;;3.50;;
78430;SDS011;67727;50.236;22.452;2023-05-16T10:17:10;5.90;;;3.50;;
78430;SDS011;67727;50.236;22.452;2023-05-16T10:19:39;4.60;;;3.30;;
78430;SDS011;67727;50.236;22.452;2023-05-16T10:22:07;4.30;;;3.20;;
78430;SDS011;67727;50.236;22.452;2023-05-16T10:24:42;6.30;;;2.80;;
78430;SDS011;67727;50.236;22.452;2023-05-16T10:27:14;3.90;;;3.10;;
78430;SDS011;67727;50.236;22.452;2023-05-16T10:29:43;3.90;;;2.80;;
78430;SDS011;67727;50.236;22.452;2023-05-16T10:32:10;5.00;;;2.70;;
78430;SDS011;67727;50.236;22.452;2023-05-16T10:34:39;3.60;;;2.80;;
78430;SDS011;67727;50.236;22.452;2023-05-16T10:37:06;3.10;;;2.80;;
78430;SDS011;67727;50.236;22.452;2023-05-16T10:39:34;5.70;;;3.10;;
78430;SDS011;67727;50.236;22.452;2023-05-16T10:42:04;3.50;;;3.10;;
78430;SDS011;67727;50.236;22.452;2023-05-16T10:44:32;3.50;;;2.90;;
78430;SDS011;67727;50.236;22.452;2023-05-16T10:46:59;4.40;;;3.30;;
78430;SDS011;67727;50.236;22.452;2023-05-16T10:49:26;3.40;;;3.00;;
78430;SDS011;67727;50.236;22.452;2023-05-16T10:52:14;4.20;;;3.50;;
78430;SDS011;67727;50.236;22.452;2023-05-16T10:54:48;5.00;;;3.60;;
78430;SDS011;67727;50.236;22.452;2023-05-16T10:57:17;4.80;;;3.80;;
78430;SDS011;67727;50.236;22.452;2023-05-16T10:59:49;3.80;;;3.00;;
78430;SDS011;67727;50.236;22.452;2023-05-16T11:04:54;4.90;;;3.30;;
78430;SDS011;67727;50.236;22.452;2023-05-16T11:07:25;3.60;;;3.00;;
78430;SDS011;67727;50.236;22.452;2023-05-16T11:10:01;6.30;;;3.70;;
78430;SDS011;67727;50.236;22.452;2023-05-16T11:17:46;4.60;;;4.10;;
78430;SDS011;67727;50.236;22.452;2023-05-16T11:20:47;4.30;;;3.60;;
78430;SDS011;67727;50.236;22.452;2023-05-16T11:25:45;5.90;;;3.70;;
78430;SDS011;67727;50.236;22.452;2023-05-16T11:28:31;5.30;;;3.80;;
78430;SDS011;67727;50.236;22.452;2023-05-16T11:31:00;4.10;;;3.50;;
78430;SDS011;67727;50.236;22.452;2023-05-16T11:33:30;4.90;;;3.80;;
78430;SDS011;67727;50.236;22.452;2023-05-16T11:36:01;5.20;;;3.50;;
78430;SDS011;67727;50.236;22.452;2023-05-16T11:38:32;5.50;;;3.60;;
78430;SDS011;67727;50.236;22.452;2023-05-16T11:41:01;5.30;;;4.00;;
78430;SDS011;67727;50.236;22.452;2023-05-16T11:43:35;5.60;;;3.80;;
78430;SDS011;67727;50.236;22.452;2023-05-16T11:46:05;4.60;;;3.30;;
78430;SDS011;67727;50.236;22.452;2023-05-16T11:48:33;4.60;;;3.40;;
78430;SDS011;67727;50.236;22.452;2023-05-16T11:51:00;4.50;;;3.20;;
78430;SDS011;67727;50.236;22.452;2023-05-16T11:53:30;5.90;;;3.10;;
78430;SDS011;67727;50.236;22.452;2023-05-16T11:55:58;5.00;;;3.40;;
78430;SDS011;67727;50.236;22.452;2023-05-16T11:58:26;4.00;;;3.20;;
78430;SDS011;67727;50.236;22.452;2023-05-16T12:00:54;4.00;;;3.10;;
78430;SDS011;67727;50.236;22.452;2023-05-16T12:05:50;5.30;;;3.00;;
78430;SDS011;67727;50.236;22.452;2023-05-16T12:08:19;4.20;;;3.20;;
78430;SDS011;67727;50.236;22.452;2023-05-16T12:10:47;4.10;;;2.90;;
78430;SDS011;67727;50.236;22.452;2023-05-16T12:13:16;5.80;;;3.30;;
78430;SDS011;67727;50.236;22.452;2023-05-16T12:15:51;7.80;;;3.40;;
78430;SDS011;67727;50.236;22.452;2023-05-16T12:18:18;4.50;;;3.50;;
78430;SDS011;67727;50.236;22.452;2023-05-16T12:20:46;5.20;;;3.80;;
78430;SDS011;67727;50.236;22.452;2023-05-16T12:23:13;5.40;;;3.70;;
78430;SDS011;67727;50.236;22.452;2023-05-16T12:28:12;5.60;;;3.50;;
78430;SDS011;67727;50.236;22.452;2023-05-16T12:30:40;8.50;;;4.10;;
78430;SDS011;67727;50.236;22.452;2023-05-16T12:33:09;4.80;;;4.10;;
78430;SDS011;67727;50.236;22.452;2023-05-16T12:35:39;5.90;;;3.50;;
78430;SDS011;67727;50.236;22.452;2023-05-16T12:38:07;5.20;;;3.60;;
78430;SDS011;67727;50.236;22.452;2023-05-16T12:40:37;5.70;;;3.70;;
78430;SDS011;67727;50.236;22.452;2023-05-16T12:43:13;5.30;;;4.10;;
78430;SDS011;67727;50.236;22.452;2023-05-16T12:45:50;4.90;;;3.60;;
78430;SDS011;67727;50.236;22.452;2023-05-16T12:48:18;4.90;;;3.20;;
78430;SDS011;67727;50.236;22.452;2023-05-16T12:50:45;5.30;;;3.70;;
78430;SDS011;67727;50.236;22.452;2023-05-16T12:55:42;5.70;;;3.90;;
78430;SDS011;67727;50.236;22.452;2023-05-16T12:58:09;5.60;;;4.20;;
78430;SDS011;67727;50.236;22.452;2023-05-16T13:00:37;5.70;;;4.00;;
78430;SDS011;67727;50.236;22.452;2023-05-16T13:03:04;6.80;;;4.10;;
78430;SDS011;67727;50.236;22.452;2023-05-16T13:05:33;6.90;;;4.20;;
78430;SDS011;67727;50.236;22.452;2023-05-16T13:08:03;5.30;;;4.10;;
78430;SDS011;67727;50.236;22.452;2023-05-16T13:10:30;7.90;;;4.90;;
78430;SDS011;67727;50.236;22.452;2023-05-16T13:12:57;5.40;;;3.90;;
78430;SDS011;67727;50.236;22.452;2023-05-16T13:15:25;5.00;;;4.50;;
78430;SDS011;67727;50.236;22.452;2023-05-16T13:17:54;5.10;;;4.50;;
78430;SDS011;67727;50.236;22.452;2023-05-16T13:20:21;5.80;;;4.70;;
78430;SDS011;67727;50.236;22.452;2023-05-16T13:22:48;6.00;;;4.10;;
78430;SDS011;67727;50.236;22.452;2023-05-16T13:25:15;5.20;;;4.00;;
78430;SDS011;67727;50.236;22.452;2023-05-16T13:27:42;5.50;;;4.10;;
78430;SDS011;67727;50.236;22.452;2023-05-16T13:30:09;4.60;;;3.90;;
78430;SDS011;67727;50.236;22.452;2023-05-16T13:32:36;4.10;;;3.40;;
78430;SDS011;67727;50.236;22.452;2023-05-16T13:35:03;5.00;;;3.90;;
78430;SDS011;67727;50.236;22.452;2023-05-16T13:37:31;5.00;;;4.20;;
78430;SDS011;67727;50.236;22.452;2023-05-16T13:39:58;5.00;;;3.80;;
78430;SDS011;67727;50.236;22.452;2023-05-16T13:42:25;5.40;;;3.90;;
78430;SDS011;67727;50.236;22.452;2023-05-16T13:44:52;4.80;;;3.90;;
78430;SDS011;67727;50.236;22.452;2023-05-16T13:47:18;7.40;;;4.10;;
78430;SDS011;67727;50.236;22.452;2023-05-16T13:49:46;4.80;;;4.20;;
78430;SDS011;67727;50.236;22.452;2023-05-16T13:52:13;6.40;;;4.20;;
78430;SDS011;67727;50.236;22.452;2023-05-16T13:54:40;6.50;;;4.50;;
78430;SDS011;67727;50.236;22.452;2023-05-16T13:59:34;6.00;;;4.30;;
78430;SDS011;67727;50.236;22.452;2023-05-16T14:02:01;7.80;;;4.90;;
78430;SDS011;67727;50.236;22.452;2023-05-16T14:04:28;5.90;;;4.20;;
78430;SDS011;67727;50.236;22.452;2023-05-16T14:06:54;4.80;;;3.70;;
78430;SDS011;67727;50.236;22.452;2023-05-16T14:11:48;12.30;;;8.20;;
78430;SDS011;67727;50.236;22.452;2023-05-16T14:14:15;7.90;;;5.50;;
78430;SDS011;67727;50.236;22.452;2023-05-16T14:16:42;5.90;;;4.30;;
78430;SDS011;67727;50.236;22.452;2023-05-16T14:19:11;7.50;;;4.40;;
78430;SDS011;67727;50.236;22.452;2023-05-16T14:21:38;6.00;;;4.70;;
78430;SDS011;67727;50.236;22.452;2023-05-16T14:24:05;5.40;;;4.50;;
78430;SDS011;67727;50.236;22.452;2023-05-16T14:26:32;5.70;;;4.70;;
78430;SDS011;67727;50.236;22.452;2023-05-16T14:28:59;6.50;;;4.70;;
78430;SDS011;67727;50.236;22.452;2023-05-16T14:31:26;7.00;;;5.20;;
78430;SDS011;67727;50.236;22.452;2023-05-16T14:33:53;5.50;;;4.80;;
78430;SDS011;67727;50.236;22.452;2023-05-16T14:36:20;6.90;;;4.20;;
78430;SDS011;67727;50.236;22.452;2023-05-16T14:38:47;6.40;;;4.70;;
78430;SDS011;67727;50.236;22.452;2023-05-16T14:41:14;5.40;;;4.70;;
78430;SDS011;67727;50.236;22.452;2023-05-16T14:43:43;6.70;;;5.20;;
78430;SDS011;67727;50.236;22.452;2023-05-16T14:46:10;6.40;;;4.50;;
78430;SDS011;67727;50.236;22.452;2023-05-16T14:48:37;6.10;;;5.20;;
78430;SDS011;67727;50.236;22.452;2023-05-16T14:51:04;6.80;;;4.50;;
78430;SDS011;67727;50.236;22.452;2023-05-16T14:53:31;7.80;;;5.30;;
78430;SDS011;67727;50.236;22.452;2023-05-16T14:55:58;8.50;;;4.90;;
78430;SDS011;67727;50.236;22.452;2023-05-16T14:58:28;6.80;;;5.30;;
78430;SDS011;67727;50.236;22.452;2023-05-16T15:00:56;6.30;;;5.10;;
78430;SDS011;67727;50.236;22.452;2023-05-16T15:03:23;6.10;;;5.10;;
78430;SDS011;67727;50.236;22.452;2023-05-16T15:05:50;6.70;;;5.00;;
78430;SDS011;67727;50.236;22.452;2023-05-16T15:08:17;11.80;;;8.40;;
78430;SDS011;67727;50.236;22.452;2023-05-16T15:10:44;10.30;;;7.40;;
78430;SDS011;67727;50.236;22.452;2023-05-16T15:13:11;12.10;;;8.30;;
78430;SDS011;67727;50.236;22.452;2023-05-16T15:15:38;15.30;;;7.90;;
78430;SDS011;67727;50.236;22.452;2023-05-16T15:18:05;11.90;;;8.00;;
78430;SDS011;67727;50.236;22.452;2023-05-16T15:20:34;11.70;;;9.70;;
78430;SDS011;67727;50.236;22.452;2023-05-16T15:23:03;10.00;;;8.30;;
78430;SDS011;67727;50.236;22.452;2023-05-16T15:25:30;12.30;;;7.70;;
78430;SDS011;67727;50.236;22.452;2023-05-16T15:27:57;34.20;;;19.70;;
78430;SDS011;67727;50.236;22.452;2023-05-16T15:30:24;36.50;;;19.80;;
78430;SDS011;67727;50.236;22.452;2023-05-16T15:32:50;25.10;;;13.80;;
78430;SDS011;67727;50.236;22.452;2023-05-16T15:35:17;44.50;;;22.30;;
78430;SDS011;67727;50.236;22.452;2023-05-16T15:37:45;32.60;;;17.10;;
78430;SDS011;67727;50.236;22.452;2023-05-16T15:40:12;29.20;;;17.80;;